Accueil
METAR-TAF:

METAR-TAF

Aéroports :

Aéroport Federico-Fellini

Rimini, Italie

latitude: 44-02N, longitude: 012-37E, altitude: 12 m

Observation

Le bulletin a été fait il y a 24 minutes, à 21:50 UTC
Vent 1 kt de direction variable
Température 5°C
Humidité 93%
Pression 1006 hPa
Visibilité: 5000 m
brume

METAR: LIPR 032150Z AUTO VRB01KT 5000 BR OVC018/// 05/04 Q1006

Heure: 23:14 (22:14 UTC)

Prévision

Le bulletin a été fait il y a 2 heures et 14 minutes, à 20:00 UTC
Prévision valable du 03 à 21 UTC au 04 à 06 UTC
Vent 5 kt de direction variable
Visibilité: 8000 m
Nuages fragmentés à une hauteur de 3000 ft
Evoluant progressivement
du 03 à 23 UTC au 04 à 01 UTC
Visibilité: 3000 m
brume

TAF: LIPR 032000Z 0321/0406 VRB05KT 8000 BKN030 BECMG 0323/0401 3000 BR

Observations et prévisions météorologiques de plus de 4000 aéroports (messages METAR et TAF).

Les stations disponibles sont représentées par des disques jaunes et rouges sur la carte.

Passer la souris dessus pour voir le nom de la station.

Cliquer dessus pour voir les observations et prévisions météorologiques.

Pour changer de carte: cliquez sur les boutons verts avec une croix noire pour zoomer, sur le bouton vert avec un tiret pour effectuer un zoom arrière, ou sur les flèches vertes pour les cartes adjacentes.


METAR-TAF: